createdAt,value
2018-07-01T00:00:31.657Z,43.16
2018-07-01T00:01:31.622Z,43.64
2018-07-01T00:02:31.574Z,43.07
2018-07-01T00:03:31.533Z,43.07
2018-07-01T00:04:31.514Z,43.35
2018-07-01T00:05:31.453Z,42.97
2018-07-01T00:06:31.422Z,43.45
2018-07-01T00:07:31.375Z,43.45
2018-07-01T00:08:31.369Z,43.16
2018-07-01T00:09:31.290Z,43.16
2018-07-01T00:10:31.257Z,43.45
2018-07-01T00:11:31.212Z,43.35
2018-07-01T00:12:31.172Z,43.14
2018-07-01T00:13:31.136Z,43.33
2018-07-01T00:14:31.207Z,43.23
2018-07-01T00:15:31.059Z,43.71
2018-07-01T00:16:31.013Z,43.43
2018-07-01T00:17:30.967Z,43.71
2018-07-01T00:18:30.928Z,43.71
2018-07-01T00:19:30.884Z,43.43
2018-07-01T00:20:30.848Z,43.71
2018-07-01T00:21:30.822Z,43.81
2018-07-01T00:22:30.778Z,43.43
2018-07-01T00:23:30.747Z,44.20
2018-07-01T00:24:30.691Z,44.10
2018-07-01T00:25:30.639Z,43.91
2018-07-01T00:26:30.613Z,44.20
2018-07-01T00:27:30.558Z,44.10
2018-07-01T00:28:30.519Z,44.20
2018-07-01T00:29:30.502Z,44.00
2018-07-01T00:30:30.449Z,44.00
2018-07-01T00:31:30.408Z,44.00
2018-07-01T00:32:30.360Z,44.00
2018-07-01T00:33:30.316Z,44.48
2018-07-01T00:34:30.279Z,44.48
2018-07-01T00:35:30.234Z,44.08
2018-07-01T00:36:30.194Z,44.20
2018-07-01T00:37:30.155Z,44.17
2018-07-01T00:38:30.112Z,44.17
2018-07-01T00:39:30.083Z,44.46
2018-07-01T00:40:30.038Z,45.04
2018-07-01T00:41:29.992Z,44.46
2018-07-01T00:42:29.953Z,44.46
2018-07-01T00:43:29.912Z,44.27
2018-07-01T00:44:29.868Z,44.46
2018-07-01T00:45:29.835Z,44.27
2018-07-01T00:46:29.785Z,44.17
2018-07-01T00:47:29.745Z,44.65
2018-07-01T00:48:29.705Z,44.94
2018-07-01T00:49:29.660Z,44.65
2018-07-01T00:50:29.620Z,44.94
2018-07-01T00:51:29.580Z,45.14
2018-07-01T00:52:29.568Z,45.14
2018-07-01T00:53:29.496Z,44.94
2018-07-01T00:54:29.461Z,44.94
2018-07-01T00:55:29.418Z,44.94
2018-07-01T00:56:29.374Z,45.14
2018-07-01T00:57:29.342Z,45.42
2018-07-01T00:58:29.296Z,45.42
2018-07-01T00:59:29.252Z,45.32
2018-07-01T01:00:29.793Z,45.81
2018-07-01T01:01:29.179Z,46.09
2018-07-01T01:02:29.134Z,45.78
2018-07-01T01:03:29.088Z,46.36
2018-07-01T01:04:29.047Z,45.68
2018-07-01T01:05:29.023Z,46.45
2018-07-01T01:06:28.975Z,45.98
2018-07-01T01:07:28.928Z,45.68
2018-07-01T01:08:28.898Z,45.98
2018-07-01T01:09:28.842Z,45.98
2018-07-01T01:10:28.818Z,46.55
2018-07-01T01:11:28.828Z,46.65
2018-07-01T01:12:28.720Z,46.74
2018-07-01T01:13:28.677Z,46.84
2018-07-01T01:14:28.637Z,46.74
2018-07-01T01:15:28.613Z,47.13
2018-07-01T01:16:28.559Z,46.74
2018-07-01T01:17:28.516Z,47.13
2018-07-01T01:18:28.479Z,46.74
2018-07-01T01:19:28.430Z,47.22
2018-07-01T01:20:28.389Z,47.41
2018-07-01T01:21:28.361Z,47.51
2018-07-01T01:22:28.311Z,47.51
2018-07-01T01:23:28.265Z,47.22
2018-07-01T01:24:28.229Z,47.20
2018-07-01T01:25:28.190Z,47.10
2018-07-01T01:26:28.175Z,47.22
2018-07-01T01:27:28.101Z,47.61
2018-07-01T01:28:28.067Z,47.68
2018-07-01T01:29:28.035Z,47.58
2018-07-01T01:30:27.978Z,47.77
2018-07-01T01:31:27.969Z,47.68
2018-07-01T01:32:27.901Z,47.97
2018-07-01T01:33:27.857Z,47.68
2018-07-01T01:34:27.814Z,47.97
2018-07-01T01:35:27.772Z,47.97
2018-07-01T01:36:27.729Z,48.25
2018-07-01T01:37:27.690Z,48.83
2018-07-01T01:38:27.793Z,48.16
2018-07-01T01:39:27.606Z,49.02
2018-07-01T01:40:27.570Z,48.07
2018-07-01T01:41:27.524Z,48.83
2018-07-01T01:42:27.485Z,48.93
2018-07-01T01:43:27.463Z,48.64
2018-07-01T01:44:27.403Z,49.12
2018-07-01T01:45:27.359Z,49.12
2018-07-01T01:46:27.318Z,49.12
2018-07-01T01:47:27.276Z,49.41
2018-07-01T01:48:27.236Z,49.21
2018-07-01T01:49:27.282Z,48.93
2018-07-01T01:50:27.151Z,49.12
2018-07-01T01:51:27.219Z,49.38
2018-07-01T01:52:27.072Z,49.19
2018-07-01T01:53:27.029Z,49.48
2018-07-01T01:54:26.986Z,49.57
2018-07-01T01:55:26.946Z,49.19
2018-07-01T01:56:26.904Z,49.19
2018-07-01T01:57:26.863Z,49.57
2018-07-01T01:58:27.168Z,49.29
2018-07-01T01:59:27.885Z,48.90
2018-07-01T02:00:26.743Z,49.10
2018-07-01T02:01:26.699Z,49.00
2018-07-01T02:02:26.656Z,49.38
2018-07-01T02:03:26.979Z,48.80
2018-07-01T02:04:26.803Z,49.67
2018-07-01T02:05:26.651Z,49.57
2018-07-01T02:06:26.599Z,50.05
2018-07-01T02:07:26.460Z,49.29
2018-07-01T02:08:26.407Z,50.05
2018-07-01T02:09:26.366Z,49.76
2018-07-01T02:10:26.344Z,49.57
2018-07-01T02:11:26.283Z,49.96
2018-07-01T02:12:26.250Z,49.76
2018-07-01T02:13:26.197Z,50.05
2018-07-01T02:14:26.216Z,50.15
2018-07-01T02:15:26.115Z,50.05
2018-07-01T02:16:26.077Z,50.15
2018-07-01T02:17:26.032Z,49.96
2018-07-01T02:18:25.990Z,50.34
2018-07-01T02:19:25.948Z,50.05
2018-07-01T02:20:25.911Z,50.15
2018-07-01T02:21:25.871Z,50.63
2018-07-01T02:22:25.826Z,50.60
2018-07-01T02:23:25.787Z,50.43
2018-07-01T02:24:25.741Z,49.76
2018-07-01T02:25:25.699Z,50.63
2018-07-01T02:26:25.656Z,50.63
2018-07-01T02:27:25.623Z,50.73
2018-07-01T02:28:25.573Z,50.53
2018-07-01T02:29:25.540Z,50.32
2018-07-01T02:30:25.493Z,50.70
2018-07-01T02:31:25.457Z,50.70
2018-07-01T02:32:25.408Z,50.70
2018-07-01T02:33:25.365Z,50.89
2018-07-01T02:34:25.323Z,50.41
2018-07-01T02:35:25.410Z,50.89
2018-07-01T02:36:25.239Z,50.79
2018-07-01T02:37:25.199Z,51.08
2018-07-01T02:38:25.159Z,51.37
2018-07-01T02:39:25.114Z,50.79
2018-07-01T02:40:25.074Z,50.70
2018-07-01T02:41:25.031Z,51.56
2018-07-01T02:42:24.990Z,51.65
2018-07-01T02:43:24.949Z,50.89
2018-07-01T02:44:24.908Z,51.37
2018-07-01T02:45:24.864Z,50.70
2018-07-01T02:46:24.828Z,51.37
2018-07-01T02:47:24.780Z,51.28
2018-07-01T02:48:24.741Z,51.85
2018-07-01T02:49:24.696Z,51.65
2018-07-01T02:50:24.656Z,51.56
2018-07-01T02:51:24.616Z,51.85
2018-07-01T02:52:24.573Z,51.75
2018-07-01T02:53:25.044Z,51.75
2018-07-01T02:54:24.496Z,51.75
2018-07-01T02:55:24.448Z,51.65
2018-07-01T02:56:24.406Z,52.23
2018-07-01T02:57:24.363Z,52.14
2018-07-01T02:58:24.321Z,51.65
2018-07-01T02:59:24.278Z,51.65
2018-07-01T03:00:24.238Z,51.85
2018-07-01T03:01:24.201Z,51.73
2018-07-01T03:02:24.158Z,51.75
2018-07-01T03:03:24.112Z,52.52
2018-07-01T03:04:24.069Z,53.09
2018-07-01T03:05:24.030Z,52.11
2018-07-01T03:06:23.994Z,52.50
2018-07-01T03:07:23.949Z,52.20
2018-07-01T03:08:23.907Z,52.59
2018-07-01T03:09:23.864Z,52.97
2018-07-01T03:10:23.822Z,52.59
2018-07-01T03:11:23.777Z,52.87
2018-07-01T03:12:23.738Z,52.69
2018-07-01T03:13:23.696Z,52.97
2018-07-01T03:14:23.654Z,52.87
2018-07-01T03:15:23.609Z,52.87
2018-07-01T03:16:23.571Z,52.87
2018-07-01T03:17:23.528Z,53.55
2018-07-01T03:18:23.486Z,53.36
2018-07-01T03:19:23.443Z,53.45
2018-07-01T03:20:23.404Z,53.16
2018-07-01T03:21:23.361Z,53.55
2018-07-01T03:22:23.320Z,53.26
2018-07-01T03:23:23.274Z,53.45
2018-07-01T03:24:23.233Z,53.45
2018-07-01T03:25:23.191Z,53.74
2018-07-01T03:26:23.150Z,53.45
2018-07-01T03:27:23.109Z,53.45
2018-07-01T03:28:23.065Z,53.45
2018-07-01T03:29:23.027Z,53.16
2018-07-01T03:30:22.999Z,54.03
2018-07-01T03:31:22.946Z,53.74
2018-07-01T03:32:22.898Z,53.26
2018-07-01T03:33:22.856Z,53.74
2018-07-01T03:34:22.815Z,53.83
2018-07-01T03:35:22.771Z,53.93
2018-07-01T03:36:22.729Z,53.93
2018-07-01T03:37:22.688Z,54.03
2018-07-01T03:38:22.652Z,54.60
2018-07-01T03:39:22.603Z,54.12
2018-07-01T03:40:22.563Z,54.41
2018-07-01T03:41:22.519Z,54.60
2018-07-01T03:42:22.477Z,54.70
2018-07-01T03:43:22.442Z,54.50
2018-07-01T03:44:22.397Z,54.50
2018-07-01T03:45:22.352Z,54.79
2018-07-01T03:46:22.312Z,54.99
2018-07-01T03:47:22.268Z,54.70
2018-07-01T03:48:22.228Z,54.79
2018-07-01T03:49:22.184Z,55.27
2018-07-01T03:50:22.142Z,54.60
2018-07-01T03:51:22.100Z,55.46
2018-07-01T03:52:22.057Z,55.27
2018-07-01T03:53:22.017Z,54.79
2018-07-01T03:54:21.973Z,55.15
2018-07-01T03:55:21.931Z,55.18
2018-07-01T03:56:21.892Z,55.08
2018-07-01T03:57:21.846Z,55.56
2018-07-01T03:58:21.805Z,55.44
2018-07-01T03:59:21.762Z,55.65
2018-07-01T04:00:21.726Z,55.27
2018-07-01T04:01:21.678Z,55.73
2018-07-01T04:02:21.638Z,55.91
2018-07-01T04:03:21.595Z,56.13
2018-07-01T04:04:21.558Z,56.30
2018-07-01T04:05:21.511Z,56.10
2018-07-01T04:06:21.474Z,56.10
2018-07-01T04:07:21.428Z,56.39
2018-07-01T04:08:21.385Z,56.77
2018-07-01T04:09:21.343Z,56.20
2018-07-01T04:10:21.303Z,56.77
2018-07-01T04:11:21.262Z,56.39
2018-07-01T04:12:21.215Z,56.32
2018-07-01T04:13:21.177Z,56.77
2018-07-01T04:14:21.130Z,56.39
2018-07-01T04:15:21.089Z,56.20
2018-07-01T04:16:21.049Z,56.39
2018-07-01T04:17:21.006Z,57.09
2018-07-01T04:18:20.962Z,56.77
2018-07-01T04:19:20.920Z,56.59
2018-07-01T04:20:20.876Z,57.35
2018-07-01T04:21:20.837Z,57.16
2018-07-01T04:22:20.793Z,57.06
2018-07-01T04:23:20.750Z,57.06
2018-07-01T04:24:20.712Z,56.90
2018-07-01T04:25:20.667Z,56.87
2018-07-01T04:26:20.625Z,56.97
2018-07-01T04:27:20.582Z,56.87
2018-07-01T04:28:20.543Z,56.97
2018-07-01T04:29:20.502Z,57.26
2018-07-01T04:30:20.455Z,56.77
2018-07-01T04:31:20.413Z,57.45
2018-07-01T04:32:20.374Z,57.54
2018-07-01T04:33:20.328Z,57.38
2018-07-01T04:34:20.295Z,57.45
2018-07-01T04:35:20.244Z,56.99
2018-07-01T04:36:20.202Z,56.81
2018-07-01T04:37:20.160Z,56.99
2018-07-01T04:38:20.121Z,57.19
2018-07-01T04:39:20.076Z,57.38
2018-07-01T04:40:20.033Z,57.16
2018-07-01T04:41:19.991Z,57.09
2018-07-01T04:42:19.954Z,57.16
2018-07-01T04:43:19.907Z,57.38
2018-07-01T04:44:19.865Z,57.48
2018-07-01T04:45:19.823Z,57.38
2018-07-01T04:46:19.783Z,57.38
2018-07-01T04:47:19.737Z,57.76
2018-07-01T04:48:19.696Z,57.67
2018-07-01T04:49:19.703Z,56.99
2018-07-01T04:50:19.610Z,57.38
2018-07-01T04:51:19.568Z,57.28
2018-07-01T04:52:19.526Z,56.81
2018-07-01T04:53:19.485Z,57.09
2018-07-01T04:54:19.443Z,56.32
2018-07-01T04:55:19.416Z,56.23
2018-07-01T04:56:19.361Z,56.23
2018-07-01T04:57:19.317Z,56.32
2018-07-01T04:58:19.273Z,56.13
2018-07-01T04:59:19.235Z,56.42
2018-07-01T05:00:19.193Z,56.13
2018-07-01T05:01:19.149Z,56.32
2018-07-01T05:02:19.132Z,55.85
2018-07-01T05:03:19.066Z,55.65
2018-07-01T05:04:19.024Z,56.42
2018-07-01T05:05:18.982Z,56.42
2018-07-01T05:06:18.938Z,55.85
2018-07-01T05:07:18.900Z,55.56
2018-07-01T05:08:18.860Z,56.32
2018-07-01T05:09:18.822Z,55.65
2018-07-01T05:10:18.770Z,56.32
2018-07-01T05:11:18.725Z,55.68
2018-07-01T05:12:18.682Z,56.45
2018-07-01T05:13:18.642Z,56.16
2018-07-01T05:14:18.599Z,56.07
2018-07-01T05:15:18.559Z,55.58
2018-07-01T05:16:18.518Z,55.49
2018-07-01T05:17:18.485Z,55.40
2018-07-01T05:18:18.435Z,56.35
2018-07-01T05:19:18.387Z,56.26
2018-07-01T05:20:18.346Z,55.78
2018-07-01T05:21:18.304Z,55.40
2018-07-01T05:22:18.261Z,55.68
2018-07-01T05:23:18.220Z,55.87
2018-07-01T05:24:18.177Z,54.82
2018-07-01T05:25:18.137Z,55.30
2018-07-01T05:26:18.095Z,54.82
2018-07-01T05:27:18.051Z,55.30
2018-07-01T05:28:18.015Z,55.58
2018-07-01T05:29:17.970Z,55.21
2018-07-01T05:30:17.926Z,55.01
2018-07-01T05:31:17.888Z,55.04
2018-07-01T05:32:17.841Z,55.01
2018-07-01T05:33:17.799Z,55.13
2018-07-01T05:34:17.760Z,54.85
2018-07-01T05:35:17.718Z,54.75
2018-07-01T05:36:17.674Z,55.04
2018-07-01T05:37:17.632Z,54.53
2018-07-01T05:38:17.588Z,54.17
2018-07-01T05:39:17.547Z,54.27
2018-07-01T05:40:17.508Z,54.75
2018-07-01T05:41:17.465Z,53.99
2018-07-01T05:42:17.423Z,53.70
2018-07-01T05:43:17.382Z,53.89
2018-07-01T05:44:17.338Z,53.50
2018-07-01T05:45:17.297Z,53.70
2018-07-01T05:46:17.254Z,53.50
2018-07-01T05:47:17.216Z,53.44
2018-07-01T05:48:17.170Z,53.05
2018-07-01T05:49:17.149Z,52.95
2018-07-01T05:50:17.094Z,52.67
2018-07-01T05:51:17.044Z,53.05
2018-07-01T05:52:17.003Z,53.15
2018-07-01T05:53:16.961Z,52.76
2018-07-01T05:54:16.919Z,52.48
2018-07-01T05:55:16.880Z,52.76
2018-07-01T05:56:16.836Z,52.19
2018-07-01T05:57:16.794Z,52.76
2018-07-01T05:58:16.757Z,52.19
2018-07-01T05:59:16.709Z,52.28
2018-07-01T06:00:16.668Z,51.81
2018-07-01T06:01:16.626Z,51.71
2018-07-01T06:02:16.591Z,51.90
2018-07-01T06:03:16.549Z,51.51
2018-07-01T06:04:16.505Z,50.78
2018-07-01T06:05:16.463Z,51.45
2018-07-01T06:06:16.427Z,51.54
2018-07-01T06:07:16.381Z,50.96
2018-07-01T06:08:16.337Z,51.25
2018-07-01T06:09:16.306Z,51.64
2018-07-01T06:10:16.253Z,51.45
2018-07-01T06:11:16.212Z,51.35
2018-07-01T06:12:16.171Z,51.35
2018-07-01T06:13:16.129Z,51.25
2018-07-01T06:14:16.089Z,50.96
2018-07-01T06:15:16.057Z,51.06
2018-07-01T06:16:16.005Z,51.06
2018-07-01T06:17:15.973Z,50.96
2018-07-01T06:18:15.926Z,50.96
2018-07-01T06:19:15.879Z,51.37
2018-07-01T06:20:15.839Z,50.61
2018-07-01T06:21:15.799Z,50.70
2018-07-01T06:22:15.755Z,50.51
2018-07-01T06:23:15.720Z,50.42
2018-07-01T06:24:15.673Z,50.23
2018-07-01T06:25:15.634Z,50.03
2018-07-01T06:26:15.590Z,50.03
2018-07-01T06:27:15.554Z,49.84
2018-07-01T06:28:15.508Z,49.46
2018-07-01T06:29:15.465Z,49.38
2018-07-01T06:30:15.429Z,49.19
2018-07-01T06:31:15.381Z,49.19
2018-07-01T06:32:15.341Z,49.77
2018-07-01T06:33:15.301Z,49.77
2018-07-01T06:34:15.261Z,49.19
2018-07-01T06:35:15.226Z,49.19
2018-07-01T06:36:15.175Z,49.19
2018-07-01T06:37:15.134Z,49.10
2018-07-01T06:38:15.099Z,49.00
2018-07-01T06:39:15.060Z,49.02
2018-07-01T06:40:15.018Z,48.83
2018-07-01T06:41:14.975Z,48.64
2018-07-01T06:42:14.936Z,48.45
2018-07-01T06:43:14.894Z,48.25
2018-07-01T06:44:14.849Z,48.35
2018-07-01T06:45:14.806Z,48.16
2018-07-01T06:46:14.766Z,47.68
2018-07-01T06:47:14.724Z,47.87
2018-07-01T06:48:14.698Z,49.41
2018-07-01T06:49:14.648Z,48.54
2018-07-01T06:50:14.603Z,49.02
2018-07-01T06:51:14.560Z,49.02
2018-07-01T06:52:14.518Z,48.28
2018-07-01T06:53:14.479Z,48.28
2018-07-01T06:54:14.437Z,48.28
2018-07-01T06:55:14.400Z,47.70
2018-07-01T06:56:14.356Z,47.41
2018-07-01T06:57:14.314Z,47.70
2018-07-01T06:58:14.274Z,47.31
2018-07-01T06:59:14.235Z,47.31
2018-07-01T07:00:14.194Z,47.61
2018-07-01T07:01:14.152Z,47.70
2018-07-01T07:02:14.112Z,46.86
2018-07-01T07:03:14.078Z,46.84
2018-07-01T07:04:14.036Z,46.64
2018-07-01T07:05:13.989Z,47.15
2018-07-01T07:06:13.953Z,47.63
2018-07-01T07:07:13.907Z,48.21
2018-07-01T07:08:13.867Z,47.44
2018-07-01T07:09:13.827Z,47.72
2018-07-01T07:10:13.786Z,47.92
2018-07-01T07:11:13.745Z,47.72
2018-07-01T07:12:13.707Z,47.44
2018-07-01T07:13:13.664Z,47.15
2018-07-01T07:14:13.627Z,46.47
2018-07-01T07:15:13.585Z,46.47
2018-07-01T07:16:13.565Z,46.21
2018-07-01T07:17:13.503Z,46.98
2018-07-01T07:18:13.465Z,47.46
2018-07-01T07:19:13.423Z,46.59
2018-07-01T07:20:13.382Z,45.25
2018-07-01T07:21:13.343Z,44.86
2018-07-01T07:22:13.303Z,45.25
2018-07-01T07:23:13.263Z,44.28
2018-07-01T07:24:13.220Z,44.57
2018-07-01T07:25:13.184Z,44.11
2018-07-01T07:26:13.146Z,43.92
2018-07-01T07:27:13.099Z,44.21
2018-07-01T07:28:13.068Z,44.21
2018-07-01T07:29:13.021Z,43.73
2018-07-01T07:30:12.979Z,43.82
2018-07-01T07:31:12.940Z,43.63
2018-07-01T07:32:12.900Z,44.11
2018-07-01T07:33:12.860Z,43.15
2018-07-01T07:34:12.820Z,43.05
2018-07-01T07:35:12.780Z,44.13
2018-07-01T07:36:12.739Z,43.92
2018-07-01T07:37:12.699Z,43.46
2018-07-01T07:38:12.662Z,42.97
2018-07-01T07:39:12.619Z,43.07
2018-07-01T07:40:12.581Z,42.88
2018-07-01T07:41:12.539Z,42.69
2018-07-01T07:42:12.501Z,41.34
2018-07-01T07:43:12.458Z,41.34
2018-07-01T07:44:12.424Z,42.71
2018-07-01T07:45:12.439Z,41.46
2018-07-01T07:46:12.340Z,41.65
2018-07-01T07:47:12.299Z,41.84
2018-07-01T07:48:12.263Z,41.46
2018-07-01T07:49:12.220Z,41.46
2018-07-01T07:50:12.186Z,39.53
2018-07-01T07:51:12.143Z,39.43
2018-07-01T07:52:12.175Z,39.43
2018-07-01T07:53:12.061Z,38.95
2018-07-01T07:54:12.025Z,39.43
2018-07-01T07:55:11.984Z,39.53
2018-07-01T07:56:11.943Z,39.64
2018-07-01T07:57:11.910Z,39.74
2018-07-01T07:58:11.868Z,39.64
2018-07-01T07:59:11.825Z,38.97
2018-07-01T08:00:11.784Z,39.06
2018-07-01T08:01:11.746Z,39.94
2018-07-01T08:02:11.708Z,39.64
2018-07-01T08:03:11.666Z,38.97
2018-07-01T08:04:11.626Z,38.60
2018-07-01T08:07:11.513Z,38.60
2018-07-01T08:08:11.479Z,39.95
2018-07-01T08:10:11.391Z,37.75
2018-07-01T08:11:11.350Z,36.40
2018-07-01T08:12:11.314Z,36.30
2018-07-01T08:13:11.327Z,36.21
2018-07-01T08:14:11.233Z,36.40
2018-07-01T08:15:11.199Z,36.40
2018-07-01T08:16:11.159Z,36.61
2018-07-01T08:17:11.121Z,36.13
2018-07-01T08:18:11.086Z,36.13
2018-07-01T08:19:11.038Z,35.47
2018-07-01T08:20:10.999Z,37.02
2018-07-01T08:21:10.963Z,35.86
2018-07-01T08:22:10.921Z,36.24
2018-07-01T08:23:10.884Z,36.05
2018-07-01T08:24:10.845Z,34.04
2018-07-01T08:25:10.812Z,33.55
2018-07-01T08:26:10.765Z,33.84
2018-07-01T08:27:10.727Z,33.84
2018-07-01T08:28:10.689Z,33.45
2018-07-01T08:29:10.654Z,34.34
2018-07-01T08:30:10.613Z,35.12
2018-07-01T08:31:10.572Z,33.57
2018-07-01T08:32:10.536Z,32.79
2018-07-01T08:33:10.500Z,33.37
2018-07-01T08:34:10.460Z,33.87
2018-07-01T08:35:10.421Z,33.87
2018-07-01T08:36:10.381Z,32.62
2018-07-01T08:37:10.344Z,33.69
2018-07-01T08:38:10.309Z,33.31
2018-07-01T08:39:10.267Z,32.64
2018-07-01T08:40:10.291Z,31.47
2018-07-01T08:41:10.193Z,31.28
2018-07-01T08:42:10.154Z,31.18
2018-07-01T08:43:10.113Z,30.52
2018-07-01T08:44:10.075Z,30.23
2018-07-01T08:45:10.046Z,30.91
2018-07-01T08:46:10.068Z,30.42
2018-07-01T08:47:09.964Z,30.04
2018-07-01T08:48:09.925Z,30.34
2018-07-01T08:49:09.888Z,30.44
2018-07-01T08:50:09.850Z,29.95
2018-07-01T08:51:09.814Z,30.34
2018-07-01T08:52:09.772Z,30.24
2018-07-01T08:53:09.736Z,29.47
2018-07-01T08:54:09.704Z,29.48
2018-07-01T08:55:09.665Z,29.38
2018-07-01T08:56:09.623Z,27.93
2018-07-01T08:57:09.584Z,29.38
2018-07-01T08:58:09.551Z,29.58
2018-07-01T08:59:09.511Z,29.19
2018-07-01T09:00:09.474Z,29.97
2018-07-01T09:01:09.439Z,29.69
2018-07-01T09:02:09.399Z,28.53
2018-07-01T09:03:09.364Z,28.04
2018-07-01T09:04:09.328Z,28.63
2018-07-01T09:05:09.290Z,27.18
2018-07-01T09:06:09.251Z,28.91
2018-07-01T09:07:09.211Z,27.18
2018-07-01T09:08:09.176Z,27.57
2018-07-01T09:09:09.139Z,27.08
2018-07-01T09:10:09.101Z,27.28
2018-07-01T09:11:09.063Z,27.28
2018-07-01T09:12:09.027Z,27.28
2018-07-01T09:13:09.089Z,26.11
2018-07-01T09:14:08.954Z,27.57
2018-07-01T09:15:08.915Z,28.74
2018-07-01T09:16:08.879Z,28.54
2018-07-01T09:17:08.870Z,28.54
2018-07-01T09:18:08.806Z,27.86
2018-07-01T09:19:08.766Z,28.44
2018-07-01T09:20:08.730Z,29.61
2018-07-01T09:21:08.692Z,28.05
2018-07-01T09:22:08.656Z,28.05
2018-07-01T09:23:08.619Z,28.34
2018-07-01T09:24:08.584Z,26.50
2018-07-01T09:25:08.551Z,27.18
2018-07-01T09:26:08.508Z,27.86
2018-07-01T09:27:08.473Z,28.25
2018-07-01T09:28:08.435Z,29.22
2018-07-01T09:29:08.400Z,27.76
2018-07-01T09:30:08.369Z,26.81
2018-07-01T09:31:08.323Z,27.39
2018-07-01T09:32:08.288Z,26.51
2018-07-01T09:33:08.252Z,26.90
2018-07-01T09:34:08.216Z,25.93
2018-07-01T09:35:08.177Z,27.19
2018-07-01T09:36:08.156Z,27.00
2018-07-01T09:37:08.111Z,26.90
2018-07-01T09:38:08.069Z,26.92
2018-07-01T09:39:08.035Z,25.85
2018-07-01T09:40:07.997Z,26.04
2018-07-01T09:41:07.960Z,26.23
2018-07-01T09:42:07.923Z,25.56
2018-07-01T09:43:07.886Z,25.26
2018-07-01T09:44:07.853Z,26.62
2018-07-01T09:45:07.815Z,26.53
2018-07-01T09:46:07.778Z,25.85
2018-07-01T09:47:07.746Z,25.86
2018-07-01T09:48:07.741Z,25.37
2018-07-01T09:49:07.673Z,25.18
2018-07-01T09:50:07.632Z,24.30
2018-07-01T09:51:07.595Z,23.82
2018-07-01T09:52:07.564Z,23.72
2018-07-01T09:53:07.526Z,23.91
2018-07-01T09:54:07.491Z,24.40
2018-07-01T09:55:07.454Z,23.72
2018-07-01T09:56:07.413Z,23.62
2018-07-01T09:57:07.378Z,23.24
2018-07-01T09:58:07.341Z,23.33
2018-07-01T09:59:07.305Z,23.62
2018-07-01T10:00:07.304Z,23.62
2018-07-01T10:01:07.311Z,24.79
2018-07-01T10:02:07.196Z,24.21
2018-07-01T10:03:07.166Z,25.48
2018-07-01T10:04:07.124Z,24.12
2018-07-01T10:05:07.094Z,23.35
2018-07-01T10:06:07.059Z,24.32
2018-07-01T10:07:07.031Z,24.32
2018-07-01T10:08:07.036Z,25.19
2018-07-01T10:09:07.039Z,24.82
2018-07-01T10:10:06.919Z,22.97
2018-07-01T10:11:06.916Z,23.84
2018-07-01T10:12:07.023Z,23.25
2018-07-01T10:13:06.913Z,23.65
2018-07-01T10:14:06.797Z,23.74
2018-07-01T10:15:06.795Z,22.77
2018-07-01T10:16:06.795Z,22.97
2018-07-01T10:17:06.677Z,24.62
2018-07-01T10:18:06.677Z,23.36
2018-07-01T10:19:06.673Z,22.97
2018-07-01T10:20:06.554Z,24.54
2018-07-01T10:21:06.552Z,23.66
2018-07-01T10:22:06.552Z,24.15
2018-07-01T10:23:06.557Z,23.17
2018-07-01T10:24:06.432Z,23.07
2018-07-01T10:25:06.435Z,23.08
2018-07-01T10:26:06.496Z,22.69
2018-07-01T10:27:06.312Z,23.28
2018-07-01T10:28:06.313Z,22.69
2018-07-01T10:29:06.312Z,21.92
2018-07-01T10:30:06.311Z,21.34
2018-07-01T10:32:06.190Z,22.12
2018-07-01T10:33:06.191Z,21.83
2018-07-01T10:34:06.070Z,21.25
2018-07-01T10:35:06.069Z,21.44
2018-07-01T10:36:06.075Z,21.44
2018-07-01T10:37:05.950Z,22.22
2018-07-01T10:38:05.971Z,21.94
2018-07-01T10:39:05.953Z,22.03
2018-07-01T10:40:05.990Z,22.03
2018-07-01T10:41:05.828Z,22.72
2018-07-01T10:42:05.829Z,20.78
2018-07-01T10:43:05.828Z,20.19
2018-07-01T10:44:05.707Z,20.58
2018-07-01T10:45:05.708Z,20.58
2018-07-01T10:46:05.707Z,21.36
2018-07-01T10:47:05.707Z,23.12
2018-07-01T10:48:05.591Z,22.14
2018-07-01T10:49:05.586Z,20.20
2018-07-01T10:50:05.590Z,19.42
2018-07-01T10:51:05.467Z,20.79
2018-07-01T10:52:05.467Z,20.50
2018-07-01T10:53:05.470Z,19.71
2018-07-01T10:54:05.469Z,20.41
2018-07-01T10:55:05.350Z,21.58
2018-07-01T10:56:05.346Z,20.70
2018-07-01T10:57:05.343Z,21.39
2018-07-01T10:58:05.225Z,20.80
2018-07-01T10:59:05.224Z,21.39
2018-07-01T11:00:05.222Z,20.70
2018-07-01T11:01:05.225Z,20.02
2018-07-01T11:02:05.104Z,20.22
2018-07-01T11:03:05.109Z,20.32
2018-07-01T11:04:05.106Z,22.17
2018-07-01T11:05:04.981Z,20.32
2018-07-01T11:06:05.036Z,19.82
2018-07-01T11:07:04.982Z,19.73
2018-07-01T11:08:04.981Z,20.61
2018-07-01T11:09:04.861Z,20.12
2018-07-01T11:10:04.868Z,19.54
2018-07-01T11:11:04.863Z,19.54
2018-07-01T11:12:04.741Z,19.64
2018-07-01T11:13:04.741Z,19.84
2018-07-01T11:14:04.743Z,19.35
2018-07-01T11:15:04.742Z,19.65
2018-07-01T11:16:04.620Z,19.26
2018-07-01T11:17:04.621Z,18.66
2018-07-01T11:18:04.618Z,18.37
2018-07-01T11:19:04.499Z,19.06
2018-07-01T11:20:04.497Z,19.35
2018-07-01T11:21:04.497Z,18.97
2018-07-01T11:22:04.496Z,18.27
2018-07-01T11:23:04.380Z,17.98
2018-07-01T11:24:04.377Z,18.08
2018-07-01T11:25:04.379Z,17.98
2018-07-01T11:26:04.345Z,18.18
2018-07-01T11:27:04.492Z,18.27
2018-07-01T11:28:04.257Z,17.98
2018-07-01T11:29:04.259Z,18.48
2018-07-01T11:30:04.136Z,18.19
2018-07-01T11:31:04.135Z,17.88
2018-07-01T11:32:04.136Z,18.27
2018-07-01T11:33:04.134Z,17.98
2018-07-01T11:34:04.015Z,18.87
2018-07-01T11:35:04.059Z,18.58
2018-07-01T11:36:04.013Z,17.90
2018-07-01T11:37:03.894Z,18.19
2018-07-01T11:38:03.947Z,17.80
2018-07-01T11:39:03.894Z,18.19
2018-07-01T11:40:03.892Z,18.01
2018-07-01T11:41:03.772Z,17.82
2018-07-01T11:42:03.773Z,18.21
2018-07-01T11:43:03.772Z,18.21
2018-07-01T11:44:03.651Z,17.82
2018-07-01T11:45:03.654Z,17.92
2018-07-01T11:46:03.653Z,18.12
2018-07-01T11:47:03.651Z,17.82
2018-07-01T11:48:03.531Z,17.92
2018-07-01T11:49:03.535Z,17.53
2018-07-01T11:50:03.529Z,17.63
2018-07-01T11:51:03.531Z,18.02
2018-07-01T11:52:03.422Z,17.42
2018-07-01T11:53:03.410Z,17.42
2018-07-01T11:54:03.409Z,17.82
2018-07-01T11:55:03.289Z,18.79
2018-07-01T11:56:03.287Z,18.70
2018-07-01T11:57:03.288Z,17.82
2018-07-01T11:58:03.292Z,17.24
2018-07-01T11:59:03.169Z,17.14
2018-07-01T12:00:03.180Z,17.14
2018-07-01T12:01:03.169Z,17.14
2018-07-01T12:02:03.126Z,17.63
2018-07-01T12:03:03.049Z,16.95
2018-07-01T12:04:03.049Z,16.75
2018-07-01T12:05:16.205Z,16.95
2018-07-01T12:06:02.927Z,17.14
2018-07-01T12:07:02.931Z,16.96
2018-07-01T12:08:02.930Z,17.55
2018-07-01T12:09:03.004Z,17.35
2018-07-01T12:10:02.806Z,16.87
2018-07-01T12:11:02.805Z,16.97
2018-07-01T12:12:02.879Z,16.97
2018-07-01T12:13:02.684Z,17.17
2018-07-01T12:14:02.686Z,16.39
2018-07-01T12:15:02.684Z,16.00
2018-07-01T12:16:02.685Z,16.30
2018-07-01T12:17:02.565Z,16.31
2018-07-01T12:18:02.575Z,16.42
2018-07-01T12:19:02.565Z,15.53
2018-07-01T12:20:02.564Z,14.95
2018-07-01T12:21:02.442Z,15.34
2018-07-01T12:22:02.445Z,15.25
2018-07-01T12:23:02.442Z,14.96
2018-07-01T12:24:02.400Z,15.45
2018-07-01T12:25:02.322Z,14.57
2018-07-01T12:26:02.322Z,14.76
2018-07-01T12:27:02.328Z,14.28
2018-07-01T12:28:02.206Z,14.57
2018-07-01T12:29:02.199Z,13.78
2018-07-01T12:30:02.200Z,14.87
2018-07-01T12:31:02.202Z,13.79
2018-07-01T12:32:02.086Z,14.58
2018-07-01T12:33:02.079Z,14.69
2018-07-01T12:34:02.078Z,13.61
2018-07-01T12:35:02.095Z,13.52
2018-07-01T12:36:01.958Z,12.93
2018-07-01T12:37:01.959Z,13.13
2018-07-01T12:38:01.957Z,12.65
2018-07-01T12:39:01.961Z,12.74
2018-07-01T12:40:01.839Z,12.65
2018-07-01T12:41:01.851Z,12.35
2018-07-01T12:42:01.847Z,12.25
2018-07-01T12:43:01.840Z,12.55
2018-07-01T12:44:01.721Z,12.65
2018-07-01T12:45:01.718Z,12.55
2018-07-01T12:46:01.721Z,12.06
2018-07-01T12:47:01.716Z,11.97
2018-07-01T12:48:01.599Z,12.37
2018-07-01T12:49:01.600Z,11.39
2018-07-01T12:50:01.595Z,11.49
2018-07-01T12:51:01.595Z,10.89
2018-07-01T12:52:01.475Z,12.08
2018-07-01T12:53:01.477Z,11.49
2018-07-01T12:54:01.480Z,11.60
2018-07-01T12:55:01.474Z,10.80
2018-07-01T12:56:01.354Z,10.80